Terminal Aerodrome Forecast
Issued by NWS

Home | Current Version | Previous Version | Text Only | Print | Product List | Glossary On
Versions: 1 2 3 4 5 6 7 8 9 10 11 12
000
FTUS44 KEPZ 251720
TAFLRU
TAF
KLRU 251720Z 2518/2618 16008KT P6SM FEW250
     FM252000 21014G24KT P6SM SCT250
     FM260300 25010KT P6SM SCT250
     FM260800 29009KT P6SM SKC
     FM261700 27015G25KT P6SM SKC=

USA.gov is the U.S. government's official web portal to all federal, state and local government web resources and services.